sensor_id;sensor_type;location;lat;lon;timestamp;temperature;humidity
48604;DHT22;32708;51.212;6.788;2023-02-23T00:01:49;10.90;99.90
48604;DHT22;32708;51.212;6.788;2023-02-23T00:04:16;10.90;99.90
48604;DHT22;32708;51.212;6.788;2023-02-23T00:06:43;10.80;99.90
48604;DHT22;32708;51.212;6.788;2023-02-23T00:09:10;10.70;99.90
48604;DHT22;32708;51.212;6.788;2023-02-23T00:11:59;10.90;99.90
48604;DHT22;32708;51.212;6.788;2023-02-23T00:14:34;10.70;99.90
48604;DHT22;32708;51.212;6.788;2023-02-23T00:17:02;10.70;99.90
48604;DHT22;32708;51.212;6.788;2023-02-23T00:19:28;10.70;99.90
48604;DHT22;32708;51.212;6.788;2023-02-23T00:21:55;10.70;99.90
48604;DHT22;32708;51.212;6.788;2023-02-23T00:24:23;10.70;99.90
48604;DHT22;32708;51.212;6.788;2023-02-23T00:26:51;10.90;99.90
48604;DHT22;32708;51.212;6.788;2023-02-23T00:29:21;10.80;99.90
48604;DHT22;32708;51.212;6.788;2023-02-23T00:31:49;10.90;99.90
48604;DHT22;32708;51.212;6.788;2023-02-23T00:34:17;10.70;99.90
48604;DHT22;32708;51.212;6.788;2023-02-23T00:36:50;10.70;99.90
48604;DHT22;32708;51.212;6.788;2023-02-23T00:39:18;10.70;99.90
48604;DHT22;32708;51.212;6.788;2023-02-23T00:41:49;10.90;99.90
48604;DHT22;32708;51.212;6.788;2023-02-23T00:44:18;10.70;99.90
48604;DHT22;32708;51.212;6.788;2023-02-23T00:46:45;10.70;99.90
48604;DHT22;32708;51.212;6.788;2023-02-23T00:49:17;10.70;99.90
48604;DHT22;32708;51.212;6.788;2023-02-23T00:51:43;10.60;99.90
48604;DHT22;32708;51.212;6.788;2023-02-23T00:54:14;10.70;99.90
48604;DHT22;32708;51.212;6.788;2023-02-23T00:56:41;10.80;99.90
48604;DHT22;32708;51.212;6.788;2023-02-23T00:59:08;10.70;99.90
48604;DHT22;32708;51.212;6.788;2023-02-23T01:01:35;10.70;99.90
48604;DHT22;32708;51.212;6.788;2023-02-23T01:04:02;10.60;99.90
48604;DHT22;32708;51.212;6.788;2023-02-23T01:06:29;10.60;99.90
48604;DHT22;32708;51.212;6.788;2023-02-23T01:08:56;10.60;99.90
48604;DHT22;32708;51.212;6.788;2023-02-23T01:11:26;10.60;99.90
48604;DHT22;32708;51.212;6.788;2023-02-23T01:13:56;10.60;99.90
48604;DHT22;32708;51.212;6.788;2023-02-23T01:16:29;10.70;99.90
48604;DHT22;32708;51.212;6.788;2023-02-23T01:18:59;10.70;99.90
48604;DHT22;32708;51.212;6.788;2023-02-23T01:21:29;10.70;99.90
48604;DHT22;32708;51.212;6.788;2023-02-23T01:23:56;10.70;99.90
48604;DHT22;32708;51.212;6.788;2023-02-23T01:26:26;10.70;99.90
48604;DHT22;32708;51.212;6.788;2023-02-23T01:29:04;10.60;99.90
48604;DHT22;32708;51.212;6.788;2023-02-23T01:31:33;10.60;99.90
48604;DHT22;32708;51.212;6.788;2023-02-23T01:34:01;10.60;99.90
48604;DHT22;32708;51.212;6.788;2023-02-23T01:36:33;10.60;99.90
48604;DHT22;32708;51.212;6.788;2023-02-23T01:39:00;10.60;99.90
48604;DHT22;32708;51.212;6.788;2023-02-23T01:41:27;10.60;99.90
48604;DHT22;32708;51.212;6.788;2023-02-23T01:43:59;10.70;99.90
48604;DHT22;32708;51.212;6.788;2023-02-23T01:46:26;10.70;99.90
48604;DHT22;32708;51.212;6.788;2023-02-23T01:48:54;10.80;99.90
48604;DHT22;32708;51.212;6.788;2023-02-23T01:51:25;10.70;99.90
48604;DHT22;32708;51.212;6.788;2023-02-23T01:54:23;10.70;99.90
48604;DHT22;32708;51.212;6.788;2023-02-23T01:56:54;10.60;99.90
48604;DHT22;32708;51.212;6.788;2023-02-23T01:59:49;11.00;99.90
48604;DHT22;32708;51.212;6.788;2023-02-23T02:02:18;10.70;99.90
48604;DHT22;32708;51.212;6.788;2023-02-23T02:04:47;10.70;99.90
48604;DHT22;32708;51.212;6.788;2023-02-23T02:07:23;10.70;99.90
48604;DHT22;32708;51.212;6.788;2023-02-23T02:09:53;10.70;99.90
48604;DHT22;32708;51.212;6.788;2023-02-23T02:12:44;10.60;99.90
48604;DHT22;32708;51.212;6.788;2023-02-23T02:15:13;10.70;99.90
48604;DHT22;32708;51.212;6.788;2023-02-23T02:17:52;10.60;99.90
48604;DHT22;32708;51.212;6.788;2023-02-23T02:39:21;10.60;99.90
48604;DHT22;32708;51.212;6.788;2023-02-23T02:45:25;10.60;99.90
48604;DHT22;32708;51.212;6.788;2023-02-23T02:48:13;10.50;99.90
48604;DHT22;32708;51.212;6.788;2023-02-23T02:50:46;10.50;99.90
48604;DHT22;32708;51.212;6.788;2023-02-23T02:53:45;10.50;99.90
48604;DHT22;32708;51.212;6.788;2023-02-23T02:56:17;10.50;99.90
48604;DHT22;32708;51.212;6.788;2023-02-23T02:58:46;10.40;99.90
48604;DHT22;32708;51.212;6.788;2023-02-23T03:01:16;10.40;99.90
48604;DHT22;32708;51.212;6.788;2023-02-23T03:04:19;10.50;99.90
48604;DHT22;32708;51.212;6.788;2023-02-23T03:07:15;10.40;99.90
48604;DHT22;32708;51.212;6.788;2023-02-23T03:10:15;10.60;99.90
48604;DHT22;32708;51.212;6.788;2023-02-23T03:13:16;10.40;99.90
48604;DHT22;32708;51.212;6.788;2023-02-23T03:16:30;10.40;99.90
48604;DHT22;32708;51.212;6.788;2023-02-23T03:19:25;10.40;99.90
48604;DHT22;32708;51.212;6.788;2023-02-23T03:22:33;10.40;99.90
48604;DHT22;32708;51.212;6.788;2023-02-23T03:28:51;10.40;99.90
48604;DHT22;32708;51.212;6.788;2023-02-23T03:31:53;10.30;99.90
48604;DHT22;32708;51.212;6.788;2023-02-23T03:35:00;10.30;99.90
48604;DHT22;32708;51.212;6.788;2023-02-23T03:37:57;10.30;99.90
48604;DHT22;32708;51.212;6.788;2023-02-23T03:40:47;10.20;99.90
48604;DHT22;32708;51.212;6.788;2023-02-23T03:43:42;10.30;99.90
48604;DHT22;32708;51.212;6.788;2023-02-23T03:46:30;10.30;99.90
48604;DHT22;32708;51.212;6.788;2023-02-23T03:49:19;10.20;99.90
48604;DHT22;32708;51.212;6.788;2023-02-23T03:52:12;10.20;99.90
48604;DHT22;32708;51.212;6.788;2023-02-23T03:55:03;10.50;99.90
48604;DHT22;32708;51.212;6.788;2023-02-23T03:57:53;10.20;99.90
48604;DHT22;32708;51.212;6.788;2023-02-23T04:00:46;10.20;99.90
48604;DHT22;32708;51.212;6.788;2023-02-23T04:03:39;10.20;99.90
48604;DHT22;32708;51.212;6.788;2023-02-23T04:06:31;10.30;99.90
48604;DHT22;32708;51.212;6.788;2023-02-23T04:09:16;10.10;99.90
48604;DHT22;32708;51.212;6.788;2023-02-23T04:12:19;10.20;99.90
48604;DHT22;32708;51.212;6.788;2023-02-23T04:15:35;10.20;99.90
48604;DHT22;32708;51.212;6.788;2023-02-23T04:18:08;10.20;99.90
48604;DHT22;32708;51.212;6.788;2023-02-23T04:20:36;10.20;99.90
48604;DHT22;32708;51.212;6.788;2023-02-23T04:23:03;10.10;99.90
48604;DHT22;32708;51.212;6.788;2023-02-23T04:25:29;10.10;99.90
48604;DHT22;32708;51.212;6.788;2023-02-23T04:27:55;10.10;99.90
48604;DHT22;32708;51.212;6.788;2023-02-23T04:30:21;10.10;99.90
48604;DHT22;32708;51.212;6.788;2023-02-23T04:32:51;10.10;99.90
48604;DHT22;32708;51.212;6.788;2023-02-23T04:35:17;10.20;99.90
48604;DHT22;32708;51.212;6.788;2023-02-23T04:37:43;10.00;99.90
48604;DHT22;32708;51.212;6.788;2023-02-23T04:40:09;10.00;99.90
48604;DHT22;32708;51.212;6.788;2023-02-23T04:42:38;10.00;99.90
48604;DHT22;32708;51.212;6.788;2023-02-23T04:45:06;10.00;99.90
48604;DHT22;32708;51.212;6.788;2023-02-23T04:47:32;10.00;99.90
48604;DHT22;32708;51.212;6.788;2023-02-23T04:49:58;10.00;99.90
48604;DHT22;32708;51.212;6.788;2023-02-23T04:52:24;10.10;99.90
48604;DHT22;32708;51.212;6.788;2023-02-23T04:54:50;10.10;99.90
48604;DHT22;32708;51.212;6.788;2023-02-23T04:57:16;10.20;99.90
48604;DHT22;32708;51.212;6.788;2023-02-23T04:59:42;10.00;99.90
48604;DHT22;32708;51.212;6.788;2023-02-23T05:02:09;9.90;99.90
48604;DHT22;32708;51.212;6.788;2023-02-23T05:04:35;9.90;99.90
48604;DHT22;32708;51.212;6.788;2023-02-23T05:07:02;9.90;99.90
48604;DHT22;32708;51.212;6.788;2023-02-23T05:09:29;10.00;99.90
48604;DHT22;32708;51.212;6.788;2023-02-23T05:11:55;9.90;99.90
48604;DHT22;32708;51.212;6.788;2023-02-23T05:14:22;9.90;99.90
48604;DHT22;32708;51.212;6.788;2023-02-23T05:16:48;10.00;99.90
48604;DHT22;32708;51.212;6.788;2023-02-23T05:19:14;9.80;99.90
48604;DHT22;32708;51.212;6.788;2023-02-23T05:21:40;9.80;99.90
48604;DHT22;32708;51.212;6.788;2023-02-23T05:24:07;9.80;99.90
48604;DHT22;32708;51.212;6.788;2023-02-23T05:26:33;9.90;99.90
48604;DHT22;32708;51.212;6.788;2023-02-23T05:28:59;9.80;99.90
48604;DHT22;32708;51.212;6.788;2023-02-23T05:31:27;10.30;99.90
48604;DHT22;32708;51.212;6.788;2023-02-23T05:33:53;9.90;99.90
48604;DHT22;32708;51.212;6.788;2023-02-23T05:36:20;10.00;99.90
48604;DHT22;32708;51.212;6.788;2023-02-23T05:38:48;9.90;99.90
48604;DHT22;32708;51.212;6.788;2023-02-23T05:41:17;9.90;99.90
48604;DHT22;32708;51.212;6.788;2023-02-23T05:43:44;9.90;99.90
48604;DHT22;32708;51.212;6.788;2023-02-23T05:46:14;10.30;99.90
48604;DHT22;32708;51.212;6.788;2023-02-23T05:48:41;9.90;99.90
48604;DHT22;32708;51.212;6.788;2023-02-23T05:51:10;10.00;99.90
48604;DHT22;32708;51.212;6.788;2023-02-23T05:53:36;10.00;99.90
48604;DHT22;32708;51.212;6.788;2023-02-23T05:56:05;10.20;99.90
48604;DHT22;32708;51.212;6.788;2023-02-23T05:58:31;9.90;99.90
48604;DHT22;32708;51.212;6.788;2023-02-23T06:00:57;9.90;99.90
48604;DHT22;32708;51.212;6.788;2023-02-23T06:03:23;9.90;99.90
48604;DHT22;32708;51.212;6.788;2023-02-23T06:05:55;9.90;99.90
48604;DHT22;32708;51.212;6.788;2023-02-23T06:08:22;9.90;99.90
48604;DHT22;32708;51.212;6.788;2023-02-23T06:10:48;10.10;99.90
48604;DHT22;32708;51.212;6.788;2023-02-23T06:13:14;9.80;99.90
48604;DHT22;32708;51.212;6.788;2023-02-23T06:15:42;9.90;99.90
48604;DHT22;32708;51.212;6.788;2023-02-23T06:18:08;9.80;99.90
48604;DHT22;32708;51.212;6.788;2023-02-23T06:20:36;9.80;99.90
48604;DHT22;32708;51.212;6.788;2023-02-23T06:23:03;9.80;99.90
48604;DHT22;32708;51.212;6.788;2023-02-23T06:25:29;9.80;99.90
48604;DHT22;32708;51.212;6.788;2023-02-23T06:27:56;9.70;99.90
48604;DHT22;32708;51.212;6.788;2023-02-23T06:30:22;9.80;99.90
48604;DHT22;32708;51.212;6.788;2023-02-23T06:32:50;9.80;99.90
48604;DHT22;32708;51.212;6.788;2023-02-23T06:35:20;9.80;99.90
48604;DHT22;32708;51.212;6.788;2023-02-23T06:37:46;9.70;99.90
48604;DHT22;32708;51.212;6.788;2023-02-23T06:40:12;9.80;99.90
48604;DHT22;32708;51.212;6.788;2023-02-23T06:42:38;9.80;99.90
48604;DHT22;32708;51.212;6.788;2023-02-23T06:45:04;9.70;99.90
48604;DHT22;32708;51.212;6.788;2023-02-23T06:47:30;9.80;99.90
48604;DHT22;32708;51.212;6.788;2023-02-23T06:49:56;9.80;99.90
48604;DHT22;32708;51.212;6.788;2023-02-23T06:52:24;9.70;99.90
48604;DHT22;32708;51.212;6.788;2023-02-23T06:54:51;9.70;99.90
48604;DHT22;32708;51.212;6.788;2023-02-23T06:57:17;9.70;99.90
48604;DHT22;32708;51.212;6.788;2023-02-23T06:59:44;9.80;99.90
48604;DHT22;32708;51.212;6.788;2023-02-23T07:02:12;9.80;99.90
48604;DHT22;32708;51.212;6.788;2023-02-23T07:04:38;9.90;99.90
48604;DHT22;32708;51.212;6.788;2023-02-23T07:07:04;9.90;99.90
48604;DHT22;32708;51.212;6.788;2023-02-23T07:09:30;9.90;99.90
48604;DHT22;32708;51.212;6.788;2023-02-23T07:11:56;9.80;99.90
48604;DHT22;32708;51.212;6.788;2023-02-23T07:14:22;9.80;99.90
48604;DHT22;32708;51.212;6.788;2023-02-23T07:16:48;9.90;99.90
48604;DHT22;32708;51.212;6.788;2023-02-23T07:19:15;9.80;99.90
48604;DHT22;32708;51.212;6.788;2023-02-23T07:21:41;9.90;99.90
48604;DHT22;32708;51.212;6.788;2023-02-23T07:24:07;9.90;99.90
48604;DHT22;32708;51.212;6.788;2023-02-23T07:26:34;9.90;99.90
48604;DHT22;32708;51.212;6.788;2023-02-23T07:29:00;9.90;99.90
48604;DHT22;32708;51.212;6.788;2023-02-23T07:31:27;9.80;99.90
48604;DHT22;32708;51.212;6.788;2023-02-23T07:33:54;9.70;99.90
48604;DHT22;32708;51.212;6.788;2023-02-23T07:36:23;9.80;99.90
48604;DHT22;32708;51.212;6.788;2023-02-23T07:38:49;9.90;99.90
48604;DHT22;32708;51.212;6.788;2023-02-23T07:41:15;9.90;99.90
48604;DHT22;32708;51.212;6.788;2023-02-23T07:43:42;9.90;99.90
48604;DHT22;32708;51.212;6.788;2023-02-23T07:46:08;9.80;99.90
48604;DHT22;32708;51.212;6.788;2023-02-23T07:48:34;9.80;99.90
48604;DHT22;32708;51.212;6.788;2023-02-23T07:51:00;9.80;99.90
48604;DHT22;32708;51.212;6.788;2023-02-23T07:53:26;9.90;99.90
48604;DHT22;32708;51.212;6.788;2023-02-23T07:55:56;9.80;99.90
48604;DHT22;32708;51.212;6.788;2023-02-23T07:58:22;10.00;99.90
48604;DHT22;32708;51.212;6.788;2023-02-23T08:00:48;9.90;99.90
48604;DHT22;32708;51.212;6.788;2023-02-23T08:03:14;9.90;99.90
48604;DHT22;32708;51.212;6.788;2023-02-23T08:05:40;10.20;99.90
48604;DHT22;32708;51.212;6.788;2023-02-23T08:08:06;9.90;99.90
48604;DHT22;32708;51.212;6.788;2023-02-23T08:10:32;9.90;99.90
48604;DHT22;32708;51.212;6.788;2023-02-23T08:12:58;9.80;99.90
48604;DHT22;32708;51.212;6.788;2023-02-23T08:15:25;9.80;99.90
48604;DHT22;32708;51.212;6.788;2023-02-23T08:17:51;9.90;99.90
48604;DHT22;32708;51.212;6.788;2023-02-23T08:20:17;9.80;99.90
48604;DHT22;32708;51.212;6.788;2023-02-23T08:22:43;9.80;99.90
48604;DHT22;32708;51.212;6.788;2023-02-23T08:25:09;9.90;99.90
48604;DHT22;32708;51.212;6.788;2023-02-23T08:27:37;9.90;99.90
48604;DHT22;32708;51.212;6.788;2023-02-23T08:30:04;9.90;99.90
48604;DHT22;32708;51.212;6.788;2023-02-23T08:32:34;10.00;99.90
48604;DHT22;32708;51.212;6.788;2023-02-23T08:35:01;10.00;99.90
48604;DHT22;32708;51.212;6.788;2023-02-23T08:37:29;9.90;99.90
48604;DHT22;32708;51.212;6.788;2023-02-23T08:39:56;10.00;99.90
48604;DHT22;32708;51.212;6.788;2023-02-23T08:42:22;10.00;99.90
48604;DHT22;32708;51.212;6.788;2023-02-23T08:44:48;10.00;99.90
48604;DHT22;32708;51.212;6.788;2023-02-23T08:47:15;10.10;99.90
48604;DHT22;32708;51.212;6.788;2023-02-23T08:49:42;10.00;99.90
48604;DHT22;32708;51.212;6.788;2023-02-23T08:52:08;10.10;99.90
48604;DHT22;32708;51.212;6.788;2023-02-23T08:54:34;10.20;99.90
48604;DHT22;32708;51.212;6.788;2023-02-23T08:57:00;10.20;99.90
48604;DHT22;32708;51.212;6.788;2023-02-23T08:59:26;10.10;99.90
48604;DHT22;32708;51.212;6.788;2023-02-23T09:01:52;10.10;99.90
48604;DHT22;32708;51.212;6.788;2023-02-23T09:04:18;10.30;99.90
48604;DHT22;32708;51.212;6.788;2023-02-23T09:06:45;10.20;99.90
48604;DHT22;32708;51.212;6.788;2023-02-23T09:09:12;10.20;99.90
48604;DHT22;32708;51.212;6.788;2023-02-23T09:11:39;10.20;99.90
48604;DHT22;32708;51.212;6.788;2023-02-23T09:14:06;10.20;99.90
48604;DHT22;32708;51.212;6.788;2023-02-23T09:16:34;10.30;99.90
48604;DHT22;32708;51.212;6.788;2023-02-23T09:19:01;10.40;99.90
48604;DHT22;32708;51.212;6.788;2023-02-23T09:21:28;10.30;99.90
48604;DHT22;32708;51.212;6.788;2023-02-23T09:23:55;10.50;99.90
48604;DHT22;32708;51.212;6.788;2023-02-23T09:26:22;10.50;99.90
48604;DHT22;32708;51.212;6.788;2023-02-23T09:28:49;10.50;99.90
48604;DHT22;32708;51.212;6.788;2023-02-23T09:31:19;10.60;99.90
48604;DHT22;32708;51.212;6.788;2023-02-23T09:33:46;10.60;99.90
48604;DHT22;32708;51.212;6.788;2023-02-23T09:36:19;10.60;99.90
48604;DHT22;32708;51.212;6.788;2023-02-23T09:38:47;10.60;99.90
48604;DHT22;32708;51.212;6.788;2023-02-23T09:47:28;10.50;99.90
48604;DHT22;32708;51.212;6.788;2023-02-23T09:50:02;10.40;99.90
48604;DHT22;32708;51.212;6.788;2023-02-23T09:52:43;10.40;99.90
48604;DHT22;32708;51.212;6.788;2023-02-23T09:55:12;10.50;99.90
48604;DHT22;32708;51.212;6.788;2023-02-23T09:57:43;10.30;99.90
48604;DHT22;32708;51.212;6.788;2023-02-23T10:00:20;10.80;99.90
48604;DHT22;32708;51.212;6.788;2023-02-23T10:03:09;10.40;99.90
48604;DHT22;32708;51.212;6.788;2023-02-23T10:05:48;10.30;99.90
48604;DHT22;32708;51.212;6.788;2023-02-23T10:13:50;10.20;99.90
48604;DHT22;32708;51.212;6.788;2023-02-23T10:16:39;10.40;99.90
48604;DHT22;32708;51.212;6.788;2023-02-23T10:19:21;10.30;99.90
48604;DHT22;32708;51.212;6.788;2023-02-23T10:21:56;10.20;99.90
48604;DHT22;32708;51.212;6.788;2023-02-23T10:24:41;10.20;99.90
48604;DHT22;32708;51.212;6.788;2023-02-23T10:27:18;10.10;99.90
48604;DHT22;32708;51.212;6.788;2023-02-23T10:29:54;10.20;99.90
48604;DHT22;32708;51.212;6.788;2023-02-23T10:35:13;10.10;99.90
48604;DHT22;32708;51.212;6.788;2023-02-23T10:37:39;10.20;99.90
48604;DHT22;32708;51.212;6.788;2023-02-23T10:40:06;10.30;99.90
48604;DHT22;32708;51.212;6.788;2023-02-23T10:42:39;10.20;99.90
48604;DHT22;32708;51.212;6.788;2023-02-23T10:45:15;10.10;99.90
48604;DHT22;32708;51.212;6.788;2023-02-23T10:47:51;10.00;99.90
48604;DHT22;32708;51.212;6.788;2023-02-23T10:50:18;10.10;99.90
48604;DHT22;32708;51.212;6.788;2023-02-23T10:52:50;10.10;99.90
48604;DHT22;32708;51.212;6.788;2023-02-23T10:55:31;10.10;99.90
48604;DHT22;32708;51.212;6.788;2023-02-23T10:58:18;10.30;99.90
48604;DHT22;32708;51.212;6.788;2023-02-23T11:01:14;10.20;99.90
48604;DHT22;32708;51.212;6.788;2023-02-23T11:03:46;10.00;99.90
48604;DHT22;32708;51.212;6.788;2023-02-23T11:06:35;10.10;99.90
48604;DHT22;32708;51.212;6.788;2023-02-23T11:09:24;10.10;99.90
48604;DHT22;32708;51.212;6.788;2023-02-23T11:11:59;10.10;99.90
48604;DHT22;32708;51.212;6.788;2023-02-23T11:14:30;10.20;99.90
48604;DHT22;32708;51.212;6.788;2023-02-23T11:16:58;10.20;99.90
48604;DHT22;32708;51.212;6.788;2023-02-23T11:19:37;10.30;99.90
48604;DHT22;32708;51.212;6.788;2023-02-23T11:22:06;10.30;99.90
48604;DHT22;32708;51.212;6.788;2023-02-23T11:24:47;10.20;99.90
48604;DHT22;32708;51.212;6.788;2023-02-23T11:27:24;10.30;99.90
48604;DHT22;32708;51.212;6.788;2023-02-23T11:29:55;10.30;99.90
48604;DHT22;32708;51.212;6.788;2023-02-23T11:32:28;10.40;99.90
48604;DHT22;32708;51.212;6.788;2023-02-23T11:37:44;10.50;99.90
48604;DHT22;32708;51.212;6.788;2023-02-23T11:40:23;10.50;99.90
48604;DHT22;32708;51.212;6.788;2023-02-23T11:42:52;10.70;99.90
48604;DHT22;32708;51.212;6.788;2023-02-23T11:45:21;10.70;99.90
48604;DHT22;32708;51.212;6.788;2023-02-23T11:47:51;10.60;99.90
48604;DHT22;32708;51.212;6.788;2023-02-23T11:53:20;10.40;99.90
48604;DHT22;32708;51.212;6.788;2023-02-23T11:55:52;10.40;99.90
48604;DHT22;32708;51.212;6.788;2023-02-23T12:01:00;10.50;99.90
48604;DHT22;32708;51.212;6.788;2023-02-23T12:03:31;10.50;99.90
48604;DHT22;32708;51.212;6.788;2023-02-23T12:05:58;10.40;99.90
48604;DHT22;32708;51.212;6.788;2023-02-23T12:08:48;10.70;99.90
48604;DHT22;32708;51.212;6.788;2023-02-23T12:11:23;10.50;99.90
48604;DHT22;32708;51.212;6.788;2023-02-23T12:14:11;10.30;99.90
48604;DHT22;32708;51.212;6.788;2023-02-23T12:16:52;10.20;99.90
48604;DHT22;32708;51.212;6.788;2023-02-23T12:19:43;10.20;99.90
48604;DHT22;32708;51.212;6.788;2023-02-23T12:22:20;10.30;99.90
48604;DHT22;32708;51.212;6.788;2023-02-23T12:24:58;10.20;99.90
48604;DHT22;32708;51.212;6.788;2023-02-23T12:27:38;10.10;99.90
48604;DHT22;32708;51.212;6.788;2023-02-23T12:38:59;10.00;99.90
48604;DHT22;32708;51.212;6.788;2023-02-23T12:41:38;10.30;99.90
48604;DHT22;32708;51.212;6.788;2023-02-23T12:47:15;10.10;99.90
48604;DHT22;32708;51.212;6.788;2023-02-23T12:49:51;10.20;99.90
48604;DHT22;32708;51.212;6.788;2023-02-23T12:52:31;10.10;99.90
48604;DHT22;32708;51.212;6.788;2023-02-23T12:54:59;10.20;99.90
48604;DHT22;32708;51.212;6.788;2023-02-23T12:57:36;10.30;99.90
48604;DHT22;32708;51.212;6.788;2023-02-23T13:06:24;10.10;99.90
48604;DHT22;32708;51.212;6.788;2023-02-23T13:09:16;10.10;99.90
48604;DHT22;32708;51.212;6.788;2023-02-23T13:12:11;10.30;99.90
48604;DHT22;32708;51.212;6.788;2023-02-23T13:17:12;10.50;99.90
48604;DHT22;32708;51.212;6.788;2023-02-23T13:19:49;10.40;99.90
48604;DHT22;32708;51.212;6.788;2023-02-23T13:25:06;10.30;99.90
48604;DHT22;32708;51.212;6.788;2023-02-23T13:27:44;10.30;99.90
48604;DHT22;32708;51.212;6.788;2023-02-23T13:30:14;10.20;99.90
48604;DHT22;32708;51.212;6.788;2023-02-23T13:32:41;10.20;99.90
48604;DHT22;32708;51.212;6.788;2023-02-23T13:35:14;10.30;99.90
48604;DHT22;32708;51.212;6.788;2023-02-23T13:40:41;10.20;99.90
48604;DHT22;32708;51.212;6.788;2023-02-23T13:49:40;10.40;99.90
48604;DHT22;32708;51.212;6.788;2023-02-23T13:52:31;10.40;99.90
48604;DHT22;32708;51.212;6.788;2023-02-23T13:54:59;10.50;99.90
48604;DHT22;32708;51.212;6.788;2023-02-23T13:57:31;10.70;99.90
48604;DHT22;32708;51.212;6.788;2023-02-23T13:59:58;10.50;99.90
48604;DHT22;32708;51.212;6.788;2023-02-23T14:05:25;10.40;99.90
48604;DHT22;32708;51.212;6.788;2023-02-23T14:08:00;10.40;99.90
48604;DHT22;32708;51.212;6.788;2023-02-23T14:10:36;10.40;99.90
48604;DHT22;32708;51.212;6.788;2023-02-23T14:18:27;10.30;99.90
48604;DHT22;32708;51.212;6.788;2023-02-23T14:21:26;10.30;99.90
48604;DHT22;32708;51.212;6.788;2023-02-23T14:26:44;10.40;99.90
48604;DHT22;32708;51.212;6.788;2023-02-23T14:29:26;10.40;99.90
48604;DHT22;32708;51.212;6.788;2023-02-23T14:40:30;10.50;99.90
48604;DHT22;32708;51.212;6.788;2023-02-23T14:42:59;10.30;99.90
48604;DHT22;32708;51.212;6.788;2023-02-23T14:45:30;10.30;99.90
48604;DHT22;32708;51.212;6.788;2023-02-23T14:48:04;10.30;99.90
48604;DHT22;32708;51.212;6.788;2023-02-23T14:50:35;10.20;99.90
48604;DHT22;32708;51.212;6.788;2023-02-23T14:53:10;10.30;99.90
48604;DHT22;32708;51.212;6.788;2023-02-23T14:55:40;10.20;99.90
48604;DHT22;32708;51.212;6.788;2023-02-23T14:58:21;10.10;99.90
48604;DHT22;32708;51.212;6.788;2023-02-23T15:00:47;10.60;99.90
48604;DHT22;32708;51.212;6.788;2023-02-23T15:03:13;10.30;99.90
48604;DHT22;32708;51.212;6.788;2023-02-23T15:05:46;10.10;99.90
48604;DHT22;32708;51.212;6.788;2023-02-23T15:08:19;10.10;99.90
48604;DHT22;32708;51.212;6.788;2023-02-23T15:11:10;10.10;99.90
48604;DHT22;32708;51.212;6.788;2023-02-23T15:13:46;10.20;99.90
48604;DHT22;32708;51.212;6.788;2023-02-23T15:16:28;10.20;99.90
48604;DHT22;32708;51.212;6.788;2023-02-23T15:18:55;10.20;99.90
48604;DHT22;32708;51.212;6.788;2023-02-23T15:21:23;10.40;99.90
48604;DHT22;32708;51.212;6.788;2023-02-23T15:23:57;10.10;99.90
48604;DHT22;32708;51.212;6.788;2023-02-23T15:26:32;10.20;99.90
48604;DHT22;32708;51.212;6.788;2023-02-23T15:29:18;10.10;99.90
48604;DHT22;32708;51.212;6.788;2023-02-23T15:31:50;10.60;99.90
48604;DHT22;32708;51.212;6.788;2023-02-23T15:34:35;10.30;99.90
48604;DHT22;32708;51.212;6.788;2023-02-23T15:37:12;10.30;99.90
48604;DHT22;32708;51.212;6.788;2023-02-23T15:39:58;10.20;99.90
48604;DHT22;32708;51.212;6.788;2023-02-23T15:42:32;10.30;99.90
48604;DHT22;32708;51.212;6.788;2023-02-23T15:45:04;10.30;99.90
48604;DHT22;32708;51.212;6.788;2023-02-23T15:47:37;10.40;99.90
48604;DHT22;32708;51.212;6.788;2023-02-23T15:52:37;10.40;99.90
48604;DHT22;32708;51.212;6.788;2023-02-23T15:55:12;10.40;99.90
48604;DHT22;32708;51.212;6.788;2023-02-23T15:57:46;10.40;99.90
48604;DHT22;32708;51.212;6.788;2023-02-23T16:00:26;10.50;99.90
48604;DHT22;32708;51.212;6.788;2023-02-23T16:03:01;10.50;99.90
48604;DHT22;32708;51.212;6.788;2023-02-23T16:05:30;10.60;99.90
48604;DHT22;32708;51.212;6.788;2023-02-23T16:10:40;10.60;99.90
48604;DHT22;32708;51.212;6.788;2023-02-23T16:13:12;10.50;99.90
48604;DHT22;32708;51.212;6.788;2023-02-23T16:15:39;10.60;99.90
48604;DHT22;32708;51.212;6.788;2023-02-23T16:18:16;10.50;99.90
48604;DHT22;32708;51.212;6.788;2023-02-23T16:20:52;10.60;99.90
48604;DHT22;32708;51.212;6.788;2023-02-23T16:23:43;10.70;99.90
48604;DHT22;32708;51.212;6.788;2023-02-23T16:26:25;11.00;99.90
48604;DHT22;32708;51.212;6.788;2023-02-23T16:28:59;10.60;99.90
48604;DHT22;32708;51.212;6.788;2023-02-23T16:31:45;10.50;99.90
48604;DHT22;32708;51.212;6.788;2023-02-23T16:34:27;10.50;99.90
48604;DHT22;32708;51.212;6.788;2023-02-23T16:36:59;10.40;99.90
48604;DHT22;32708;51.212;6.788;2023-02-23T16:39:28;10.40;99.90
48604;DHT22;32708;51.212;6.788;2023-02-23T16:41:57;10.30;99.90
48604;DHT22;32708;51.212;6.788;2023-02-23T16:44:26;10.40;99.90
48604;DHT22;32708;51.212;6.788;2023-02-23T16:46:57;10.30;99.90
48604;DHT22;32708;51.212;6.788;2023-02-23T16:49:34;10.30;99.90
48604;DHT22;32708;51.212;6.788;2023-02-23T16:52:00;10.30;99.90
48604;DHT22;32708;51.212;6.788;2023-02-23T16:54:31;10.20;99.90
48604;DHT22;32708;51.212;6.788;2023-02-23T16:56:57;10.00;99.90
48604;DHT22;32708;51.212;6.788;2023-02-23T16:59:24;10.00;99.90
48604;DHT22;32708;51.212;6.788;2023-02-23T17:01:50;10.10;99.90
48604;DHT22;32708;51.212;6.788;2023-02-23T17:04:19;9.90;99.90
48604;DHT22;32708;51.212;6.788;2023-02-23T17:06:45;9.90;99.90
48604;DHT22;32708;51.212;6.788;2023-02-23T17:09:20;10.10;99.90
48604;DHT22;32708;51.212;6.788;2023-02-23T17:11:46;10.20;99.90
48604;DHT22;32708;51.212;6.788;2023-02-23T17:14:23;10.20;99.90
48604;DHT22;32708;51.212;6.788;2023-02-23T17:16:50;10.10;99.90
48604;DHT22;32708;51.212;6.788;2023-02-23T17:19:16;10.10;99.90
48604;DHT22;32708;51.212;6.788;2023-02-23T17:21:44;10.10;99.90
48604;DHT22;32708;51.212;6.788;2023-02-23T17:24:10;10.00;99.90
48604;DHT22;32708;51.212;6.788;2023-02-23T17:26:36;10.00;99.90
48604;DHT22;32708;51.212;6.788;2023-02-23T17:29:07;10.00;99.90
48604;DHT22;32708;51.212;6.788;2023-02-23T17:31:33;10.00;99.90
48604;DHT22;32708;51.212;6.788;2023-02-23T17:34:00;10.00;99.90
48604;DHT22;32708;51.212;6.788;2023-02-23T17:36:26;10.00;99.90
48604;DHT22;32708;51.212;6.788;2023-02-23T17:38:53;10.00;99.90
48604;DHT22;32708;51.212;6.788;2023-02-23T17:41:24;9.90;99.90
48604;DHT22;32708;51.212;6.788;2023-02-23T17:43:51;10.30;99.90
48604;DHT22;32708;51.212;6.788;2023-02-23T17:46:18;9.80;99.90
48604;DHT22;32708;51.212;6.788;2023-02-23T17:48:44;9.80;99.90
48604;DHT22;32708;51.212;6.788;2023-02-23T17:51:13;9.80;99.90
48604;DHT22;32708;51.212;6.788;2023-02-23T17:53:41;9.80;99.90
48604;DHT22;32708;51.212;6.788;2023-02-23T17:56:09;9.80;99.90